createdAt,value
2018-08-11T00:01:24.528Z,15.00
2018-08-11T00:03:57.465Z,10.60
2018-08-11T00:06:31.400Z,10.60
2018-08-11T00:09:04.582Z,14.27
2018-08-11T00:11:37.938Z,17.80
2018-08-11T00:14:11.503Z,17.17
2018-08-11T00:16:44.546Z,21.53
2018-08-11T00:19:18.052Z,20.03
2018-08-11T00:21:52.311Z,15.63
2018-08-11T00:24:25.249Z,22.00
2018-08-11T00:26:58.450Z,19.07
2018-08-11T00:29:31.430Z,17.70
2018-08-11T00:32:05.094Z,23.60
2018-08-11T00:34:38.188Z,20.37
2018-08-11T00:37:11.189Z,21.10
2018-08-11T00:39:45.428Z,29.30
2018-08-11T00:42:18.565Z,31.27
2018-08-11T00:44:52.213Z,21.60
2018-08-11T00:47:26.106Z,25.97
2018-08-11T00:50:00.223Z,24.93
2018-08-11T00:52:33.396Z,22.07
2018-08-11T00:55:06.803Z,24.13
2018-08-11T00:57:40.172Z,23.97
2018-08-11T01:00:18.754Z,23.00
2018-08-11T01:02:54.150Z,24.70
2018-08-11T01:05:27.531Z,21.02
2018-08-11T01:08:00.840Z,24.10
2018-08-11T01:10:34.293Z,22.50
2018-08-11T01:13:07.589Z,25.40
2018-08-11T01:15:41.378Z,19.97
2018-08-11T01:18:16.444Z,25.32
2018-08-11T01:20:49.665Z,22.37
2018-08-11T01:23:22.875Z,24.93
2018-08-11T01:25:56.115Z,22.40
2018-08-11T01:28:29.707Z,26.75
2018-08-11T01:31:03.988Z,22.93
2018-08-11T01:33:37.765Z,19.23
2018-08-11T01:36:11.029Z,18.77
2018-08-11T01:38:44.229Z,23.23
2018-08-11T01:41:17.579Z,16.40
2018-08-11T01:43:50.745Z,14.97
2018-08-11T01:46:24.347Z,15.95
2018-08-11T01:48:57.418Z,17.20
2018-08-11T01:51:30.369Z,17.70
2018-08-11T01:54:03.329Z,24.87
2018-08-11T01:56:36.349Z,18.70
2018-08-11T01:59:09.929Z,24.57
2018-08-11T02:01:42.895Z,23.00
2018-08-11T02:04:15.891Z,28.37
2018-08-11T02:06:48.874Z,32.43
2018-08-11T02:09:23.080Z,22.97
2018-08-11T02:11:56.462Z,28.63
2018-08-11T02:14:29.703Z,21.10
2018-08-11T02:17:02.827Z,20.50
2018-08-11T02:19:35.833Z,16.10
2018-08-11T02:22:08.871Z,18.60
2018-08-11T02:24:41.997Z,21.33
2018-08-11T02:27:15.186Z,22.10
2018-08-11T02:29:49.875Z,19.47
2018-08-11T02:32:22.773Z,18.30
2018-08-11T02:34:55.825Z,32.13
2018-08-11T02:37:28.926Z,15.23
2018-08-11T02:40:03.061Z,19.60
2018-08-11T02:42:37.943Z,19.47
2018-08-11T02:45:12.062Z,25.27
2018-08-11T02:47:45.087Z,19.43
2018-08-11T02:50:18.114Z,28.03
2018-08-11T02:52:51.080Z,29.20
2018-08-11T02:55:24.885Z,26.73
2018-08-11T02:57:57.818Z,26.23
2018-08-11T03:00:31.272Z,24.33
2018-08-11T03:03:04.199Z,20.37
2018-08-11T03:05:38.004Z,22.93
2018-08-11T03:08:10.929Z,15.40
2018-08-11T03:10:43.910Z,25.93
2018-08-11T03:13:17.606Z,24.53
2018-08-11T03:15:50.673Z,17.07
2018-08-11T03:18:23.811Z,16.40
2018-08-11T03:20:56.962Z,18.27
2018-08-11T03:23:29.943Z,18.33
2018-08-11T03:26:03.276Z,15.17
2018-08-11T03:28:37.280Z,19.57
2018-08-11T03:31:10.286Z,20.30
2018-08-11T03:33:43.272Z,18.43
2018-08-11T03:36:16.474Z,17.33
2018-08-11T03:38:50.079Z,26.20
2018-08-11T03:41:23.016Z,17.47
2018-08-11T03:43:56.770Z,25.30
2018-08-11T03:46:29.835Z,17.73
2018-08-11T03:49:02.812Z,24.10
2018-08-11T03:51:35.806Z,22.83
2018-08-11T03:54:08.849Z,27.73
2018-08-11T03:56:42.951Z,28.03
2018-08-11T03:59:16.001Z,23.03
2018-08-11T04:01:49.029Z,24.73
2018-08-11T04:04:22.027Z,28.12
2018-08-11T04:06:56.222Z,26.17
2018-08-11T04:09:29.580Z,24.37
2018-08-11T04:12:02.541Z,20.03
2018-08-11T04:14:36.436Z,21.73
2018-08-11T04:17:09.477Z,24.50
2018-08-11T04:19:43.473Z,23.47
2018-08-11T04:22:16.478Z,18.03
2018-08-11T04:24:49.373Z,23.93
2018-08-11T04:27:23.275Z,23.60
2018-08-11T04:29:56.257Z,19.20
2018-08-11T04:32:29.374Z,17.90
2018-08-11T04:35:02.432Z,21.00
2018-08-11T04:37:35.503Z,17.03
2018-08-11T04:40:09.320Z,21.10
2018-08-11T04:42:42.546Z,21.60
2018-08-11T04:45:15.741Z,18.23
2018-08-11T04:47:48.726Z,17.13
2018-08-11T04:50:21.752Z,23.03
2018-08-11T04:52:55.266Z,27.23
2018-08-11T04:55:28.230Z,26.10
2018-08-11T04:58:01.230Z,21.50
2018-08-11T05:00:34.193Z,21.70
2018-08-11T05:03:07.100Z,20.57
2018-08-11T05:05:42.319Z,18.10
2018-08-11T05:08:15.480Z,24.07
2018-08-11T05:10:50.555Z,18.73
2018-08-11T05:13:23.601Z,20.48
2018-08-11T05:15:56.576Z,19.87
2018-08-11T05:18:29.715Z,20.10
2018-08-11T05:21:02.865Z,22.73
2018-08-11T05:23:37.179Z,19.23
2018-08-11T05:26:10.393Z,20.83
2018-08-11T05:28:43.566Z,17.10
2018-08-11T05:31:16.723Z,20.83
2018-08-11T05:33:50.543Z,20.53
2018-08-11T05:36:23.834Z,22.40
2018-08-11T05:38:56.890Z,19.10
2018-08-11T05:41:29.904Z,19.73
2018-08-11T05:44:03.079Z,21.03
2018-08-11T05:46:41.880Z,19.50
2018-08-11T05:49:15.574Z,23.47
2018-08-11T05:51:48.603Z,14.33
2018-08-11T05:54:21.629Z,17.60
2018-08-11T05:56:54.566Z,16.00
2018-08-11T05:59:27.485Z,14.93
2018-08-11T06:02:00.496Z,18.13
2018-08-11T06:04:33.455Z,18.00
2018-08-11T06:07:06.879Z,18.00
2018-08-11T06:09:40.004Z,21.93
2018-08-11T06:12:12.970Z,22.27
2018-08-11T06:14:45.986Z,25.50
2018-08-11T06:17:18.986Z,18.37
2018-08-11T06:19:52.204Z,23.93
2018-08-11T06:22:25.175Z,19.73
2018-08-11T06:24:58.178Z,19.50
2018-08-11T06:27:31.214Z,20.82
2018-08-11T06:30:04.294Z,17.70
2018-08-11T06:32:39.759Z,24.23
2018-08-11T06:35:12.708Z,22.47
2018-08-11T06:37:45.810Z,23.30
2018-08-11T06:40:18.894Z,19.30
2018-08-11T06:42:51.869Z,22.60
2018-08-11T06:45:24.880Z,23.25
2018-08-11T06:47:57.965Z,22.73
2018-08-11T06:50:31.610Z,17.87
2018-08-11T06:53:04.528Z,20.57
2018-08-11T06:55:37.638Z,17.10
2018-08-11T06:58:11.866Z,18.60
2018-08-11T07:00:44.841Z,19.60
2018-08-11T07:03:18.965Z,18.77
2018-08-11T07:05:51.978Z,15.50
2018-08-11T07:08:25.548Z,16.17
2018-08-11T07:10:58.500Z,16.23
2018-08-11T07:13:31.744Z,17.05
2018-08-11T07:16:04.702Z,18.10
2018-08-11T07:18:37.769Z,16.53
2018-08-11T07:21:12.131Z,16.27
2018-08-11T07:23:45.224Z,12.93
2018-08-11T07:26:18.247Z,14.80
2018-08-11T07:28:50.370Z,9.67
2018-08-11T07:31:23.354Z,12.40
2018-08-11T07:33:58.015Z,10.07
2018-08-11T07:36:30.965Z,8.87
2018-08-11T07:39:04.061Z,10.27
2018-08-11T07:41:37.107Z,13.90
2018-08-11T07:44:10.950Z,9.50
2018-08-11T07:46:44.437Z,13.57
2018-08-11T07:49:17.426Z,11.03
2018-08-11T07:51:50.682Z,14.80
2018-08-11T07:54:23.628Z,10.50
2018-08-11T07:56:56.594Z,10.77
2018-08-11T07:59:29.658Z,9.28
2018-08-11T08:02:02.675Z,11.60
2018-08-11T08:04:36.498Z,12.50
2018-08-11T08:07:09.589Z,7.77
2018-08-11T08:09:42.619Z,10.90
2018-08-11T08:12:15.663Z,10.50
2018-08-11T08:14:48.720Z,16.40
2018-08-11T08:17:23.201Z,11.45
2018-08-11T08:19:56.212Z,7.30
2018-08-11T08:22:29.337Z,11.28
2018-08-11T08:25:02.404Z,14.57
2018-08-11T08:27:35.686Z,14.23
2018-08-11T08:30:11.241Z,10.77
2018-08-11T08:32:44.207Z,14.00
2018-08-11T08:35:18.317Z,14.43
2018-08-11T08:37:51.186Z,9.97
2018-08-11T08:40:24.135Z,11.90
2018-08-11T08:42:57.135Z,7.07
2018-08-11T08:45:30.054Z,12.23
2018-08-11T08:48:05.057Z,11.20
2018-08-11T08:50:38.009Z,12.03
2018-08-11T08:53:11.175Z,7.53
2018-08-11T08:55:44.169Z,10.53
2018-08-11T08:58:17.225Z,8.47
2018-08-11T09:00:50.704Z,9.67
2018-08-11T09:03:23.715Z,10.75
2018-08-11T09:05:56.734Z,8.77
2018-08-11T09:08:30.677Z,9.13
2018-08-11T09:11:03.668Z,10.70
2018-08-11T09:13:38.202Z,15.10
2018-08-11T09:16:11.208Z,7.77
2018-08-11T09:18:44.771Z,11.67
2018-08-11T09:21:17.792Z,8.50
2018-08-11T09:23:50.778Z,10.37
2018-08-11T09:26:23.768Z,8.50
2018-08-11T09:28:58.013Z,9.90
2018-08-11T09:31:31.327Z,9.60
2018-08-11T09:34:04.300Z,10.50
2018-08-11T09:36:38.188Z,9.93
2018-08-11T09:39:13.329Z,10.40
2018-08-11T09:41:46.277Z,11.70
2018-08-11T09:44:21.658Z,18.17
2018-08-11T09:46:54.610Z,13.30
2018-08-11T09:49:27.548Z,13.67
2018-08-11T09:52:00.494Z,11.80
2018-08-11T09:54:33.393Z,16.23
2018-08-11T09:57:06.652Z,11.57
2018-08-11T09:59:39.698Z,15.10
2018-08-11T10:02:21.698Z,26.37
2018-08-11T10:04:54.631Z,13.40
2018-08-11T10:07:28.625Z,16.93
2018-08-11T10:10:02.704Z,11.30
2018-08-11T10:12:35.746Z,12.60
2018-08-11T10:15:09.453Z,11.17
2018-08-11T10:17:42.392Z,11.23
2018-08-11T10:20:15.536Z,15.83
2018-08-11T10:22:48.471Z,12.03
2018-08-11T10:25:21.516Z,14.10
2018-08-11T10:27:55.295Z,11.17
2018-08-11T10:30:28.370Z,12.83
2018-08-11T10:33:01.319Z,13.00
2018-08-11T10:35:34.410Z,18.43
2018-08-11T10:38:07.407Z,14.00
2018-08-11T10:40:41.138Z,11.93
2018-08-11T10:43:14.931Z,14.43
2018-08-11T10:45:49.594Z,17.80
2018-08-11T10:48:22.465Z,11.90
2018-08-11T10:50:55.372Z,14.53
2018-08-11T10:53:28.504Z,14.70
2018-08-11T10:56:01.543Z,13.77
2018-08-11T10:58:35.569Z,14.53
2018-08-11T11:01:08.518Z,12.80
2018-08-11T11:03:41.547Z,19.77
2018-08-11T11:06:15.449Z,14.33
2018-08-11T11:08:48.446Z,18.70
2018-08-11T11:11:21.561Z,17.62
2018-08-11T11:13:55.548Z,15.57
2018-08-11T11:16:28.550Z,12.97
2018-08-11T11:19:01.442Z,12.13
2018-08-11T11:21:34.325Z,13.47
2018-08-11T11:24:08.126Z,14.70
2018-08-11T11:26:41.207Z,17.57
2018-08-11T11:29:15.732Z,12.67
2018-08-11T11:31:48.669Z,19.30
2018-08-11T11:34:22.528Z,15.70
2018-08-11T11:36:55.514Z,15.33
2018-08-11T11:39:28.478Z,19.23
2018-08-11T11:42:02.265Z,15.53
2018-08-11T11:44:35.379Z,12.37
2018-08-11T11:47:08.341Z,11.80
2018-08-11T11:49:41.383Z,16.10
2018-08-11T11:52:15.036Z,14.20
2018-08-11T11:54:48.533Z,15.13
2018-08-11T11:57:21.654Z,18.30
2018-08-11T11:59:54.685Z,19.73
2018-08-11T12:02:27.787Z,12.57
2018-08-11T12:05:00.698Z,15.50
2018-08-11T12:07:34.173Z,9.40
2018-08-11T12:10:07.399Z,11.20
2018-08-11T12:12:40.979Z,13.80
2018-08-11T12:15:14.939Z,11.60
2018-08-11T12:17:47.941Z,14.20
2018-08-11T12:20:20.950Z,11.50
2018-08-11T12:22:53.894Z,17.50
2018-08-11T12:25:27.257Z,16.93
2018-08-11T12:28:00.322Z,13.00
2018-08-11T12:30:33.324Z,10.97
2018-08-11T12:33:06.320Z,17.47
2018-08-11T12:35:39.329Z,22.73
2018-08-11T12:38:12.738Z,17.30
2018-08-11T12:40:45.811Z,15.27
2018-08-11T12:43:19.508Z,28.03
2018-08-11T12:45:52.733Z,13.27
2018-08-11T12:48:25.714Z,16.60
2018-08-11T12:50:58.666Z,24.33
2018-08-11T12:53:32.591Z,23.87
2018-08-11T12:56:06.132Z,19.20
2018-08-11T12:58:39.067Z,20.17
2018-08-11T13:01:11.958Z,21.90
2018-08-11T13:03:44.965Z,25.37
2018-08-11T13:06:19.113Z,20.90
2018-08-11T13:08:53.564Z,17.83
2018-08-11T13:11:26.582Z,8.73
2018-08-11T13:13:59.501Z,15.03
2018-08-11T13:16:32.498Z,25.37
2018-08-11T13:19:05.495Z,17.93
2018-08-11T13:21:40.170Z,16.27
2018-08-11T13:24:13.156Z,20.17
2018-08-11T13:26:46.647Z,16.53
2018-08-11T13:29:19.561Z,11.03
2018-08-11T13:31:52.618Z,15.43
2018-08-11T13:34:25.685Z,14.10
2018-08-11T13:36:58.620Z,18.80
2018-08-11T13:39:32.389Z,19.13
2018-08-11T13:42:05.389Z,17.83
2018-08-11T13:44:38.345Z,12.97
2018-08-11T13:47:11.380Z,11.90
2018-08-11T13:49:44.504Z,11.03
2018-08-11T13:52:18.049Z,12.50
2018-08-11T13:54:51.054Z,14.33
2018-08-11T13:57:24.086Z,14.03
2018-08-11T13:59:57.176Z,19.53
2018-08-11T14:02:30.127Z,15.58
2018-08-11T14:05:03.677Z,10.33
2018-08-11T14:07:36.719Z,14.87
2018-08-11T14:10:12.062Z,15.80
2018-08-11T14:12:45.114Z,12.67
2018-08-11T14:15:18.195Z,15.63
2018-08-11T14:17:51.337Z,18.70
2018-08-11T14:20:24.413Z,22.87
2018-08-11T14:22:59.266Z,16.60
2018-08-11T14:25:32.400Z,12.28
2018-08-11T14:28:05.373Z,14.00
2018-08-11T14:30:39.203Z,12.97
2018-08-11T14:33:12.278Z,14.87
2018-08-11T14:35:46.179Z,16.53
2018-08-11T14:38:19.183Z,17.10
2018-08-11T14:40:52.158Z,12.80
2018-08-11T14:43:25.279Z,23.73
2018-08-11T14:45:58.285Z,15.20
2018-08-11T14:48:31.871Z,15.87
2018-08-11T14:51:04.810Z,16.17
2018-08-11T14:53:37.970Z,19.10
2018-08-11T14:56:11.020Z,15.40
2018-08-11T14:58:43.928Z,17.40
2018-08-11T15:01:17.280Z,14.30
2018-08-11T15:03:50.871Z,17.67
2018-08-11T15:06:24.336Z,15.38
2018-08-11T15:08:57.396Z,16.13
2018-08-11T15:11:30.431Z,14.07
2018-08-11T15:14:03.383Z,17.67
2018-08-11T15:16:36.342Z,20.17
2018-08-11T15:19:11.298Z,12.90
2018-08-11T15:21:44.324Z,11.90
2018-08-11T15:24:17.833Z,16.30
2018-08-11T15:26:50.770Z,16.17
2018-08-11T15:29:23.679Z,19.80
2018-08-11T15:31:56.819Z,18.30
2018-08-11T15:34:30.020Z,13.97
2018-08-11T15:37:03.663Z,17.37
2018-08-11T15:39:36.784Z,12.50
2018-08-11T15:42:09.759Z,18.63
2018-08-11T15:44:42.748Z,18.27
2018-08-11T15:47:15.733Z,15.63
2018-08-11T15:49:49.051Z,14.50
2018-08-11T15:52:22.230Z,17.30
2018-08-11T15:54:55.480Z,14.93
2018-08-11T15:57:29.664Z,11.93
2018-08-11T16:00:02.504Z,16.10
2018-08-11T16:02:35.789Z,16.63
2018-08-11T16:05:08.905Z,21.13
2018-08-11T16:07:42.346Z,21.93
2018-08-11T16:10:15.276Z,21.80
2018-08-11T16:12:48.269Z,18.60
2018-08-11T16:15:21.292Z,17.90
2018-08-11T16:17:54.258Z,15.33
2018-08-11T16:20:28.494Z,18.53
2018-08-11T16:23:01.396Z,13.80
2018-08-11T16:25:34.513Z,16.53
2018-08-11T16:28:07.407Z,15.37
2018-08-11T16:30:40.369Z,18.73
2018-08-11T16:33:15.247Z,16.07
2018-08-11T16:35:48.356Z,11.43
2018-08-11T16:38:21.266Z,19.92
2018-08-11T16:40:54.256Z,20.55
2018-08-11T16:43:27.117Z,13.13
2018-08-11T16:46:00.509Z,12.47
2018-08-11T16:48:33.521Z,11.53
2018-08-11T16:51:06.931Z,14.03
2018-08-11T16:53:39.862Z,15.53
2018-08-11T16:56:13.861Z,14.83
2018-08-11T16:58:46.750Z,13.47
2018-08-11T17:01:19.621Z,13.45
2018-08-11T17:03:53.089Z,12.03
2018-08-11T17:06:26.017Z,24.97
2018-08-11T17:08:59.016Z,22.07
2018-08-11T17:11:32.066Z,12.53
2018-08-11T17:14:05.924Z,14.63
2018-08-11T17:16:39.573Z,14.77
2018-08-11T17:19:12.467Z,11.60
2018-08-11T17:21:45.355Z,13.23
2018-08-11T17:24:19.138Z,12.80
2018-08-11T17:26:52.126Z,12.80
2018-08-11T17:29:25.079Z,14.03
2018-08-11T17:31:58.017Z,12.53
2018-08-11T17:34:31.748Z,11.10
2018-08-11T17:37:04.698Z,9.43
2018-08-11T17:39:37.589Z,12.90
2018-08-11T17:42:10.829Z,11.37
2018-08-11T17:44:43.741Z,13.93
2018-08-11T17:47:16.750Z,12.90
2018-08-11T17:49:49.750Z,16.10
2018-08-11T17:52:22.922Z,12.67
2018-08-11T17:54:55.991Z,13.43
2018-08-11T17:57:29.006Z,16.13
2018-08-11T18:00:03.485Z,17.40
2018-08-11T18:02:36.665Z,19.40
2018-08-11T18:05:10.334Z,17.80
2018-08-11T18:07:43.730Z,19.77
2018-08-11T18:10:16.674Z,14.80
2018-08-11T18:12:50.930Z,14.13
2018-08-11T18:15:24.098Z,14.80
2018-08-11T18:17:57.954Z,16.47
2018-08-11T18:20:30.958Z,11.83
2018-08-11T18:23:03.881Z,13.83
2018-08-11T18:25:36.870Z,16.93
2018-08-11T18:28:09.930Z,17.93
2018-08-11T18:30:43.849Z,17.83
2018-08-11T18:33:16.768Z,16.53
2018-08-11T18:35:50.348Z,22.05
2018-08-11T18:38:23.434Z,17.63
2018-08-11T18:40:56.320Z,23.20
2018-08-11T18:43:29.760Z,21.05
2018-08-11T18:46:02.792Z,17.60
2018-08-11T18:48:36.598Z,20.60
2018-08-11T18:51:09.628Z,24.20
2018-08-11T18:53:42.529Z,14.63
2018-08-11T18:56:15.460Z,16.23
2018-08-11T18:58:49.368Z,18.70
2018-08-11T19:01:22.367Z,22.27
2018-08-11T19:03:55.462Z,18.40
2018-08-11T19:06:28.483Z,18.10
2018-08-11T19:09:01.468Z,14.90
2018-08-11T19:11:34.434Z,19.50
2018-08-11T19:14:07.793Z,22.37
2018-08-11T19:16:40.768Z,17.40
2018-08-11T19:25:02.405Z,17.33
2018-08-11T19:27:35.862Z,27.40
2018-08-11T19:30:10.194Z,22.10
2018-08-11T19:32:43.251Z,24.57
2018-08-11T19:35:16.250Z,25.97
2018-08-11T19:37:49.184Z,24.80
2018-08-11T19:40:22.729Z,21.90
2018-08-11T19:42:56.666Z,23.90
2018-08-11T19:45:29.513Z,24.17
2018-08-11T19:48:02.473Z,21.27
2018-08-11T19:50:35.530Z,22.73
2018-08-11T19:53:10.305Z,23.20
2018-08-11T19:55:43.350Z,26.97
2018-08-11T19:58:16.316Z,38.43
2018-08-11T20:00:49.278Z,25.50
2018-08-11T20:03:22.283Z,25.47
2018-08-11T20:05:55.292Z,26.67
2018-08-11T20:08:28.256Z,31.53
2018-08-11T20:11:01.833Z,27.70
2018-08-11T20:13:34.769Z,24.20
2018-08-11T20:16:07.849Z,24.30
2018-08-11T20:18:40.922Z,27.20
2018-08-11T20:21:14.910Z,24.13
2018-08-11T20:23:47.888Z,29.97
2018-08-11T20:26:20.893Z,38.92
2018-08-11T20:28:53.836Z,27.77
2018-08-11T20:31:26.817Z,28.93
2018-08-11T20:33:59.793Z,33.47
2018-08-11T20:36:33.189Z,27.53
2018-08-11T20:39:06.505Z,26.23
2018-08-11T20:41:40.713Z,30.23
2018-08-11T20:44:13.613Z,26.83
2018-08-11T20:46:46.514Z,27.03
2018-08-11T20:49:19.519Z,28.17
2018-08-11T20:51:52.457Z,23.20
2018-08-11T20:54:26.072Z,28.43
2018-08-11T20:56:59.069Z,27.63
2018-08-11T20:59:32.154Z,32.40
2018-08-11T21:02:05.355Z,34.27
2018-08-11T21:04:38.345Z,23.73
2018-08-11T21:07:11.592Z,24.90
2018-08-11T21:09:45.207Z,27.70
2018-08-11T21:12:19.312Z,31.63
2018-08-11T21:14:52.304Z,27.90
2018-08-11T21:17:26.070Z,24.07
2018-08-11T21:19:59.506Z,22.40
2018-08-11T21:22:32.332Z,25.77
2018-08-11T21:25:06.185Z,30.57
2018-08-11T21:27:39.565Z,25.07
2018-08-11T21:30:14.685Z,24.10
2018-08-11T21:32:47.548Z,25.80
2018-08-11T21:35:20.570Z,27.40
2018-08-11T21:37:54.170Z,31.00
2018-08-11T21:40:27.186Z,26.52
2018-08-11T21:43:00.171Z,26.20
2018-08-11T21:45:33.153Z,38.07
2018-08-11T21:48:06.181Z,26.40
2018-08-11T21:50:39.564Z,27.40
2018-08-11T21:53:12.441Z,21.43
2018-08-11T21:55:45.837Z,34.67
2018-08-11T21:58:18.777Z,21.80
2018-08-11T22:00:55.896Z,18.50
2018-08-11T22:03:28.993Z,26.50
2018-08-11T22:06:02.075Z,21.90
2018-08-11T22:08:35.534Z,25.40
2018-08-11T22:11:08.498Z,21.97
2018-08-11T22:13:41.486Z,31.73
2018-08-11T22:16:14.990Z,18.97
2018-08-11T22:18:48.063Z,23.70
2018-08-11T22:21:21.439Z,25.90
2018-08-11T22:23:54.419Z,21.20
2018-08-11T22:26:27.487Z,18.70
2018-08-11T22:29:00.498Z,23.40
2018-08-11T22:31:33.523Z,21.70
2018-08-11T22:34:07.202Z,19.00
2018-08-11T22:36:40.157Z,28.90
2018-08-11T22:39:13.971Z,21.53
2018-08-11T22:41:46.930Z,17.40
2018-08-11T22:44:20.062Z,21.50
2018-08-11T22:46:53.087Z,20.70
2018-08-11T22:49:26.036Z,19.87
2018-08-11T22:52:00.383Z,24.77
2018-08-11T22:54:33.396Z,23.93
2018-08-11T22:57:06.377Z,20.50
2018-08-11T22:59:39.344Z,21.27
2018-08-11T23:02:13.537Z,29.13
2018-08-11T23:04:47.089Z,28.23
2018-08-11T23:07:20.016Z,20.27
2018-08-11T23:09:52.916Z,23.50
2018-08-11T23:12:26.103Z,21.40
2018-08-11T23:14:59.085Z,20.37
2018-08-11T23:17:32.004Z,22.70
2018-08-11T23:20:05.062Z,21.30
2018-08-11T23:22:39.888Z,22.63
2018-08-11T23:25:13.151Z,22.00
2018-08-11T23:27:46.165Z,26.90
2018-08-11T23:30:20.061Z,25.07
2018-08-11T23:32:53.122Z,25.90
2018-08-11T23:35:26.743Z,24.20
2018-08-11T23:37:59.690Z,26.57
2018-08-11T23:40:32.732Z,27.90
2018-08-11T23:43:05.748Z,27.03
2018-08-11T23:45:38.696Z,23.50
2018-08-11T23:48:12.294Z,25.37
2018-08-11T23:50:45.280Z,29.20
2018-08-11T23:53:18.288Z,31.23
2018-08-11T23:55:52.038Z,25.47
2018-08-11T23:58:25.022Z,29.77
